sensor_id;sensor_type;location;lat;lon;timestamp;temperature;humidity
78289;DHT22;67539;48.752;12.922;2024-03-08T00:13:12;1.30;99.90
78289;DHT22;67539;48.752;12.922;2024-03-08T00:15:42;1.70;99.90
78289;DHT22;67539;48.752;12.922;2024-03-08T00:18:10;1.70;99.90
78289;DHT22;67539;48.752;12.922;2024-03-08T00:20:38;1.70;99.90
78289;DHT22;67539;48.752;12.922;2024-03-08T00:23:06;1.70;99.90
78289;DHT22;67539;48.752;12.922;2024-03-08T00:25:35;1.70;99.90
78289;DHT22;67539;48.752;12.922;2024-03-08T00:28:03;1.60;99.90
78289;DHT22;67539;48.752;12.922;2024-03-08T00:30:31;1.60;99.90
78289;DHT22;67539;48.752;12.922;2024-03-08T00:33:01;1.60;99.90
78289;DHT22;67539;48.752;12.922;2024-03-08T00:35:29;1.60;99.90
78289;DHT22;67539;48.752;12.922;2024-03-08T00:37:58;1.60;99.90
78289;DHT22;67539;48.752;12.922;2024-03-08T00:40:26;1.60;99.90
78289;DHT22;67539;48.752;12.922;2024-03-08T00:42:55;1.60;99.90
78289;DHT22;67539;48.752;12.922;2024-03-08T00:45:23;1.50;99.90
78289;DHT22;67539;48.752;12.922;2024-03-08T00:47:52;1.50;99.90
78289;DHT22;67539;48.752;12.922;2024-03-08T00:50:22;1.50;99.90
78289;DHT22;67539;48.752;12.922;2024-03-08T00:52:50;1.50;99.90
78289;DHT22;67539;48.752;12.922;2024-03-08T00:55:19;1.50;99.90
78289;DHT22;67539;48.752;12.922;2024-03-08T00:57:47;1.50;99.90
78289;DHT22;67539;48.752;12.922;2024-03-08T01:00:15;1.40;99.90
78289;DHT22;67539;48.752;12.922;2024-03-08T01:02:43;1.40;99.90
78289;DHT22;67539;48.752;12.922;2024-03-08T01:05:14;1.30;99.90
78289;DHT22;67539;48.752;12.922;2024-03-08T01:07:43;1.30;99.90
78289;DHT22;67539;48.752;12.922;2024-03-08T01:10:13;1.30;99.90
78289;DHT22;67539;48.752;12.922;2024-03-08T01:12:41;1.30;99.90
78289;DHT22;67539;48.752;12.922;2024-03-08T01:15:10;1.20;99.90
78289;DHT22;67539;48.752;12.922;2024-03-08T01:17:38;1.20;99.90
78289;DHT22;67539;48.752;12.922;2024-03-08T01:20:08;1.20;99.90
78289;DHT22;67539;48.752;12.922;2024-03-08T01:22:38;1.10;99.90
78289;DHT22;67539;48.752;12.922;2024-03-08T01:27:36;1.10;99.90
78289;DHT22;67539;48.752;12.922;2024-03-08T01:30:05;1.10;99.90
78289;DHT22;67539;48.752;12.922;2024-03-08T01:32:36;1.00;99.90
78289;DHT22;67539;48.752;12.922;2024-03-08T01:35:06;1.00;99.90
78289;DHT22;67539;48.752;12.922;2024-03-08T01:37:36;1.00;99.90
78289;DHT22;67539;48.752;12.922;2024-03-08T01:40:06;1.00;99.90
78289;DHT22;67539;48.752;12.922;2024-03-08T01:42:36;1.00;99.90
78289;DHT22;67539;48.752;12.922;2024-03-08T01:45:06;1.00;99.90
78289;DHT22;67539;48.752;12.922;2024-03-08T01:47:34;1.00;99.90
78289;DHT22;67539;48.752;12.922;2024-03-08T01:50:05;1.00;99.90
78289;DHT22;67539;48.752;12.922;2024-03-08T01:52:34;1.00;99.90
78289;DHT22;67539;48.752;12.922;2024-03-08T01:55:03;0.90;99.90
78289;DHT22;67539;48.752;12.922;2024-03-08T01:57:35;1.00;99.90
78289;DHT22;67539;48.752;12.922;2024-03-08T02:00:06;0.90;99.90
78289;DHT22;67539;48.752;12.922;2024-03-08T02:02:37;0.90;99.90
78289;DHT22;67539;48.752;12.922;2024-03-08T02:05:06;0.90;99.90
78289;DHT22;67539;48.752;12.922;2024-03-08T02:07:35;0.90;99.90
78289;DHT22;67539;48.752;12.922;2024-03-08T02:10:03;0.90;99.90
78289;DHT22;67539;48.752;12.922;2024-03-08T02:12:31;0.90;99.90
78289;DHT22;67539;48.752;12.922;2024-03-08T02:15:02;0.90;99.90
78289;DHT22;67539;48.752;12.922;2024-03-08T02:17:30;0.80;99.90
78289;DHT22;67539;48.752;12.922;2024-03-08T02:19:58;0.90;99.90
78289;DHT22;67539;48.752;12.922;2024-03-08T02:22:30;0.90;99.90
78289;DHT22;67539;48.752;12.922;2024-03-08T02:24:58;0.80;99.90
78289;DHT22;67539;48.752;12.922;2024-03-08T02:27:28;0.80;99.90
78289;DHT22;67539;48.752;12.922;2024-03-08T02:29:57;0.80;99.90
78289;DHT22;67539;48.752;12.922;2024-03-08T02:32:27;0.80;99.90
78289;DHT22;67539;48.752;12.922;2024-03-08T02:34:56;0.80;99.90
78289;DHT22;67539;48.752;12.922;2024-03-08T02:37:28;0.80;99.90
78289;DHT22;67539;48.752;12.922;2024-03-08T02:39:56;0.80;99.90
78289;DHT22;67539;48.752;12.922;2024-03-08T02:42:25;0.90;99.90
78289;DHT22;67539;48.752;12.922;2024-03-08T02:44:53;0.90;99.90
78289;DHT22;67539;48.752;12.922;2024-03-08T02:47:21;0.80;99.90
78289;DHT22;67539;48.752;12.922;2024-03-08T02:49:53;0.90;99.90
78289;DHT22;67539;48.752;12.922;2024-03-08T02:52:22;0.80;99.90
78289;DHT22;67539;48.752;12.922;2024-03-08T02:54:51;0.80;99.90
78289;DHT22;67539;48.752;12.922;2024-03-08T02:57:20;0.80;99.90
78289;DHT22;67539;48.752;12.922;2024-03-08T02:59:49;0.80;99.90
78289;DHT22;67539;48.752;12.922;2024-03-08T03:02:17;0.80;99.90
78289;DHT22;67539;48.752;12.922;2024-03-08T03:04:45;0.70;99.90
78289;DHT22;67539;48.752;12.922;2024-03-08T03:07:13;0.70;99.90
78289;DHT22;67539;48.752;12.922;2024-03-08T03:09:42;0.70;99.90
78289;DHT22;67539;48.752;12.922;2024-03-08T03:12:11;0.70;99.90
78289;DHT22;67539;48.752;12.922;2024-03-08T03:14:41;0.60;99.90
78289;DHT22;67539;48.752;12.922;2024-03-08T03:17:09;0.60;99.90
78289;DHT22;67539;48.752;12.922;2024-03-08T03:19:40;0.60;99.90
78289;DHT22;67539;48.752;12.922;2024-03-08T03:22:09;0.60;99.90
78289;DHT22;67539;48.752;12.922;2024-03-08T03:24:38;0.50;99.90
78289;DHT22;67539;48.752;12.922;2024-03-08T03:27:06;0.50;99.90
78289;DHT22;67539;48.752;12.922;2024-03-08T03:29:39;0.50;99.90
78289;DHT22;67539;48.752;12.922;2024-03-08T03:32:09;0.50;99.90
78289;DHT22;67539;48.752;12.922;2024-03-08T03:34:39;0.40;99.90
78289;DHT22;67539;48.752;12.922;2024-03-08T03:37:07;0.40;99.90
78289;DHT22;67539;48.752;12.922;2024-03-08T03:39:39;0.40;99.90
78289;DHT22;67539;48.752;12.922;2024-03-08T03:42:16;0.40;99.90
78289;DHT22;67539;48.752;12.922;2024-03-08T03:44:46;0.40;99.90
78289;DHT22;67539;48.752;12.922;2024-03-08T03:47:15;0.30;99.90
78289;DHT22;67539;48.752;12.922;2024-03-08T03:49:44;0.30;99.90
78289;DHT22;67539;48.752;12.922;2024-03-08T03:52:12;0.30;99.90
78289;DHT22;67539;48.752;12.922;2024-03-08T03:54:40;0.30;99.90
78289;DHT22;67539;48.752;12.922;2024-03-08T03:57:09;0.30;99.90
78289;DHT22;67539;48.752;12.922;2024-03-08T03:59:37;0.30;99.90
78289;DHT22;67539;48.752;12.922;2024-03-08T04:02:07;0.30;99.90
78289;DHT22;67539;48.752;12.922;2024-03-08T04:04:35;0.30;99.90
78289;DHT22;67539;48.752;12.922;2024-03-08T04:07:03;0.30;99.90
78289;DHT22;67539;48.752;12.922;2024-03-08T04:09:31;0.30;99.90
78289;DHT22;67539;48.752;12.922;2024-03-08T04:12:00;0.30;99.90
78289;DHT22;67539;48.752;12.922;2024-03-08T04:14:28;0.30;99.90
78289;DHT22;67539;48.752;12.922;2024-03-08T04:16:57;0.20;99.90
78289;DHT22;67539;48.752;12.922;2024-03-08T04:19:25;0.20;99.90
78289;DHT22;67539;48.752;12.922;2024-03-08T04:21:55;0.20;99.90
78289;DHT22;67539;48.752;12.922;2024-03-08T04:24:23;0.20;99.90
78289;DHT22;67539;48.752;12.922;2024-03-08T04:26:51;0.20;99.90
78289;DHT22;67539;48.752;12.922;2024-03-08T04:29:20;0.20;99.90
78289;DHT22;67539;48.752;12.922;2024-03-08T04:31:48;0.20;99.90
78289;DHT22;67539;48.752;12.922;2024-03-08T04:34:21;0.20;99.90
78289;DHT22;67539;48.752;12.922;2024-03-08T04:36:50;0.20;99.90
78289;DHT22;67539;48.752;12.922;2024-03-08T04:39:18;0.10;99.90
78289;DHT22;67539;48.752;12.922;2024-03-08T04:41:49;0.20;99.90
78289;DHT22;67539;48.752;12.922;2024-03-08T04:44:18;0.10;99.90
78289;DHT22;67539;48.752;12.922;2024-03-08T04:46:46;0.00;99.90
78289;DHT22;67539;48.752;12.922;2024-03-08T04:49:14;0.00;99.90
78289;DHT22;67539;48.752;12.922;2024-03-08T04:51:43;0.00;99.90
78289;DHT22;67539;48.752;12.922;2024-03-08T04:54:13;0.00;99.90
78289;DHT22;67539;48.752;12.922;2024-03-08T04:56:41;0.00;99.90
78289;DHT22;67539;48.752;12.922;2024-03-08T04:59:09;0.00;99.90
78289;DHT22;67539;48.752;12.922;2024-03-08T05:01:37;0.00;99.90
78289;DHT22;67539;48.752;12.922;2024-03-08T05:04:06;-0.10;99.90
78289;DHT22;67539;48.752;12.922;2024-03-08T05:06:36;-0.10;99.90
78289;DHT22;67539;48.752;12.922;2024-03-08T05:09:04;-0.10;99.90
78289;DHT22;67539;48.752;12.922;2024-03-08T05:11:43;-0.10;99.90
78289;DHT22;67539;48.752;12.922;2024-03-08T05:14:12;-0.10;99.90
78289;DHT22;67539;48.752;12.922;2024-03-08T05:16:43;-0.10;99.90
78289;DHT22;67539;48.752;12.922;2024-03-08T05:19:16;-0.10;99.90
78289;DHT22;67539;48.752;12.922;2024-03-08T05:21:45;-0.10;99.90
78289;DHT22;67539;48.752;12.922;2024-03-08T05:24:14;-0.20;99.90
78289;DHT22;67539;48.752;12.922;2024-03-08T05:26:46;-0.10;99.90
78289;DHT22;67539;48.752;12.922;2024-03-08T05:29:15;-0.20;99.90
78289;DHT22;67539;48.752;12.922;2024-03-08T05:31:46;-0.10;99.90
78289;DHT22;67539;48.752;12.922;2024-03-08T05:34:15;-0.20;99.90
78289;DHT22;67539;48.752;12.922;2024-03-08T05:36:44;-0.20;99.90
78289;DHT22;67539;48.752;12.922;2024-03-08T05:39:13;-0.10;99.90
78289;DHT22;67539;48.752;12.922;2024-03-08T05:41:42;-0.10;99.90
78289;DHT22;67539;48.752;12.922;2024-03-08T05:44:13;-0.20;99.90
78289;DHT22;67539;48.752;12.922;2024-03-08T05:46:41;-0.20;99.90
78289;DHT22;67539;48.752;12.922;2024-03-08T05:49:09;-0.20;99.90
78289;DHT22;67539;48.752;12.922;2024-03-08T05:51:39;-0.20;99.90
78289;DHT22;67539;48.752;12.922;2024-03-08T05:54:10;-0.20;99.90
78289;DHT22;67539;48.752;12.922;2024-03-08T05:56:42;-0.10;99.90
78289;DHT22;67539;48.752;12.922;2024-03-08T05:59:13;-0.10;99.90
78289;DHT22;67539;48.752;12.922;2024-03-08T06:01:41;-0.10;99.90
78289;DHT22;67539;48.752;12.922;2024-03-08T06:04:10;-0.10;99.90
78289;DHT22;67539;48.752;12.922;2024-03-08T06:06:39;-0.10;99.90
78289;DHT22;67539;48.752;12.922;2024-03-08T06:09:08;-0.10;99.90
78289;DHT22;67539;48.752;12.922;2024-03-08T06:11:39;-0.10;99.90
78289;DHT22;67539;48.752;12.922;2024-03-08T06:14:09;0.00;99.90
78289;DHT22;67539;48.752;12.922;2024-03-08T06:16:39;0.00;99.90
78289;DHT22;67539;48.752;12.922;2024-03-08T06:19:07;0.00;99.90
78289;DHT22;67539;48.752;12.922;2024-03-08T06:21:36;0.00;99.90
78289;DHT22;67539;48.752;12.922;2024-03-08T06:24:05;0.00;99.90
78289;DHT22;67539;48.752;12.922;2024-03-08T06:26:33;0.10;99.90
78289;DHT22;67539;48.752;12.922;2024-03-08T06:29:05;0.10;99.90
78289;DHT22;67539;48.752;12.922;2024-03-08T06:31:34;0.20;99.90
78289;DHT22;67539;48.752;12.922;2024-03-08T06:34:07;0.20;99.90
78289;DHT22;67539;48.752;12.922;2024-03-08T06:36:36;0.30;99.90
78289;DHT22;67539;48.752;12.922;2024-03-08T06:39:05;0.30;99.90
78289;DHT22;67539;48.752;12.922;2024-03-08T06:41:37;0.40;99.90
78289;DHT22;67539;48.752;12.922;2024-03-08T06:44:05;0.50;99.90
78289;DHT22;67539;48.752;12.922;2024-03-08T06:46:35;0.50;99.90
78289;DHT22;67539;48.752;12.922;2024-03-08T06:49:05;0.60;99.90
78289;DHT22;67539;48.752;12.922;2024-03-08T06:51:36;0.60;99.90
78289;DHT22;67539;48.752;12.922;2024-03-08T06:54:04;0.70;99.90
78289;DHT22;67539;48.752;12.922;2024-03-08T06:56:36;0.80;99.90
78289;DHT22;67539;48.752;12.922;2024-03-08T06:59:04;0.90;99.90
78289;DHT22;67539;48.752;12.922;2024-03-08T07:01:33;0.90;99.90
78289;DHT22;67539;48.752;12.922;2024-03-08T07:04:04;1.00;99.90
78289;DHT22;67539;48.752;12.922;2024-03-08T07:06:33;1.10;99.90
78289;DHT22;67539;48.752;12.922;2024-03-08T07:09:03;1.20;99.90
78289;DHT22;67539;48.752;12.922;2024-03-08T07:11:31;1.30;99.90
78289;DHT22;67539;48.752;12.922;2024-03-08T07:13:59;1.30;99.90
78289;DHT22;67539;48.752;12.922;2024-03-08T07:16:29;1.40;99.90
78289;DHT22;67539;48.752;12.922;2024-03-08T07:18:58;1.50;99.90
78289;DHT22;67539;48.752;12.922;2024-03-08T07:21:26;1.60;99.90
78289;DHT22;67539;48.752;12.922;2024-03-08T07:23:56;1.60;99.90
78289;DHT22;67539;48.752;12.922;2024-03-08T07:26:53;1.70;99.90
78289;DHT22;67539;48.752;12.922;2024-03-08T07:29:22;1.80;99.90
78289;DHT22;67539;48.752;12.922;2024-03-08T07:31:50;1.80;99.90
78289;DHT22;67539;48.752;12.922;2024-03-08T07:34:28;1.90;99.90
78289;DHT22;67539;48.752;12.922;2024-03-08T07:36:59;2.00;99.90
78289;DHT22;67539;48.752;12.922;2024-03-08T07:39:27;2.10;99.90
78289;DHT22;67539;48.752;12.922;2024-03-08T07:41:56;2.20;99.90
78289;DHT22;67539;48.752;12.922;2024-03-08T07:44:25;2.30;99.90
78289;DHT22;67539;48.752;12.922;2024-03-08T07:46:53;2.40;99.90
78289;DHT22;67539;48.752;12.922;2024-03-08T07:49:24;2.50;99.90
78289;DHT22;67539;48.752;12.922;2024-03-08T07:51:52;2.60;99.90
78289;DHT22;67539;48.752;12.922;2024-03-08T07:54:20;2.70;99.90
78289;DHT22;67539;48.752;12.922;2024-03-08T07:56:48;2.80;99.90
78289;DHT22;67539;48.752;12.922;2024-03-08T07:59:19;2.90;99.90
78289;DHT22;67539;48.752;12.922;2024-03-08T08:01:48;3.00;99.90
78289;DHT22;67539;48.752;12.922;2024-03-08T08:04:16;3.10;99.90
78289;DHT22;67539;48.752;12.922;2024-03-08T08:06:46;3.20;99.90
78289;DHT22;67539;48.752;12.922;2024-03-08T08:09:14;3.40;99.90
78289;DHT22;67539;48.752;12.922;2024-03-08T08:11:42;3.50;99.90
78289;DHT22;67539;48.752;12.922;2024-03-08T08:14:10;3.60;99.90
78289;DHT22;67539;48.752;12.922;2024-03-08T08:16:40;3.70;99.90
78289;DHT22;67539;48.752;12.922;2024-03-08T08:19:09;3.80;99.90
78289;DHT22;67539;48.752;12.922;2024-03-08T08:21:41;3.90;99.90
78289;DHT22;67539;48.752;12.922;2024-03-08T08:24:09;4.10;99.90
78289;DHT22;67539;48.752;12.922;2024-03-08T08:26:37;4.10;99.90
78289;DHT22;67539;48.752;12.922;2024-03-08T08:29:06;4.20;99.90
78289;DHT22;67539;48.752;12.922;2024-03-08T08:31:35;4.40;99.90
78289;DHT22;67539;48.752;12.922;2024-03-08T08:34:04;4.50;99.90
78289;DHT22;67539;48.752;12.922;2024-03-08T08:36:33;4.60;99.90
78289;DHT22;67539;48.752;12.922;2024-03-08T08:39:02;4.70;99.90
78289;DHT22;67539;48.752;12.922;2024-03-08T08:41:30;4.80;99.90
78289;DHT22;67539;48.752;12.922;2024-03-08T08:43:58;4.90;99.90
78289;DHT22;67539;48.752;12.922;2024-03-08T08:46:41;5.00;99.90
78289;DHT22;67539;48.752;12.922;2024-03-08T08:49:11;5.10;99.90
78289;DHT22;67539;48.752;12.922;2024-03-08T08:51:41;5.30;99.90
78289;DHT22;67539;48.752;12.922;2024-03-08T08:54:09;5.30;99.90
78289;DHT22;67539;48.752;12.922;2024-03-08T08:56:40;5.50;99.90
78289;DHT22;67539;48.752;12.922;2024-03-08T08:59:10;5.70;99.90
78289;DHT22;67539;48.752;12.922;2024-03-08T09:01:40;5.80;99.90
78289;DHT22;67539;48.752;12.922;2024-03-08T09:04:10;5.90;99.90
78289;DHT22;67539;48.752;12.922;2024-03-08T09:06:39;6.00;99.90
78289;DHT22;67539;48.752;12.922;2024-03-08T09:09:08;6.10;99.90
78289;DHT22;67539;48.752;12.922;2024-03-08T09:11:37;6.20;99.90
78289;DHT22;67539;48.752;12.922;2024-03-08T09:14:08;6.30;99.90
78289;DHT22;67539;48.752;12.922;2024-03-08T09:16:39;6.40;99.90
78289;DHT22;67539;48.752;12.922;2024-03-08T09:19:07;6.50;99.90
78289;DHT22;67539;48.752;12.922;2024-03-08T09:21:39;6.70;99.90
78289;DHT22;67539;48.752;12.922;2024-03-08T09:24:07;6.70;99.90
78289;DHT22;67539;48.752;12.922;2024-03-08T09:26:36;6.80;99.90
78289;DHT22;67539;48.752;12.922;2024-03-08T09:29:04;6.90;99.90
78289;DHT22;67539;48.752;12.922;2024-03-08T09:31:33;7.00;99.90
78289;DHT22;67539;48.752;12.922;2024-03-08T09:34:02;7.20;99.90
78289;DHT22;67539;48.752;12.922;2024-03-08T09:36:30;7.20;99.90
78289;DHT22;67539;48.752;12.922;2024-03-08T09:39:01;7.30;99.90
78289;DHT22;67539;48.752;12.922;2024-03-08T09:41:29;7.40;99.90
78289;DHT22;67539;48.752;12.922;2024-03-08T09:43:58;7.50;99.90
78289;DHT22;67539;48.752;12.922;2024-03-08T09:46:27;7.60;99.90
78289;DHT22;67539;48.752;12.922;2024-03-08T09:48:56;7.60;99.90
78289;DHT22;67539;48.752;12.922;2024-03-08T09:51:27;7.80;99.90
78289;DHT22;67539;48.752;12.922;2024-03-08T09:53:57;7.90;99.90
78289;DHT22;67539;48.752;12.922;2024-03-08T09:56:32;8.00;99.90
78289;DHT22;67539;48.752;12.922;2024-03-08T09:59:00;8.10;99.90
78289;DHT22;67539;48.752;12.922;2024-03-08T10:01:52;8.20;99.90
78289;DHT22;67539;48.752;12.922;2024-03-08T10:04:23;8.30;99.90
78289;DHT22;67539;48.752;12.922;2024-03-08T10:06:52;8.30;99.90
78289;DHT22;67539;48.752;12.922;2024-03-08T10:09:20;8.40;99.90
78289;DHT22;67539;48.752;12.922;2024-03-08T10:11:56;8.50;99.90
78289;DHT22;67539;48.752;12.922;2024-03-08T10:14:25;8.70;99.90
78289;DHT22;67539;48.752;12.922;2024-03-08T10:16:54;8.70;99.90
78289;DHT22;67539;48.752;12.922;2024-03-08T10:19:27;8.80;99.90
78289;DHT22;67539;48.752;12.922;2024-03-08T10:21:57;8.80;99.20
78289;DHT22;67539;48.752;12.922;2024-03-08T10:24:26;9.00;99.60
78289;DHT22;67539;48.752;12.922;2024-03-08T10:26:58;9.00;99.80
78289;DHT22;67539;48.752;12.922;2024-03-08T10:29:27;9.20;99.50
78289;DHT22;67539;48.752;12.922;2024-03-08T10:31:55;9.20;98.60
78289;DHT22;67539;48.752;12.922;2024-03-08T10:34:24;9.20;98.10
78289;DHT22;67539;48.752;12.922;2024-03-08T10:36:53;9.30;98.80
78289;DHT22;67539;48.752;12.922;2024-03-08T10:39:24;9.40;98.40
78289;DHT22;67539;48.752;12.922;2024-03-08T10:41:58;9.50;98.10
78289;DHT22;67539;48.752;12.922;2024-03-08T10:44:40;9.50;98.30
78289;DHT22;67539;48.752;12.922;2024-03-08T10:47:17;9.50;97.90
78289;DHT22;67539;48.752;12.922;2024-03-08T10:49:54;9.60;97.40
78289;DHT22;67539;48.752;12.922;2024-03-08T10:52:24;9.60;98.00
78289;DHT22;67539;48.752;12.922;2024-03-08T10:54:52;9.60;98.00
78289;DHT22;67539;48.752;12.922;2024-03-08T10:57:24;9.70;97.60
78289;DHT22;67539;48.752;12.922;2024-03-08T10:59:55;9.70;96.80
78289;DHT22;67539;48.752;12.922;2024-03-08T11:02:26;9.80;96.70
78289;DHT22;67539;48.752;12.922;2024-03-08T11:04:55;9.80;96.50
78289;DHT22;67539;48.752;12.922;2024-03-08T11:07:25;9.80;97.50
78289;DHT22;67539;48.752;12.922;2024-03-08T11:09:56;9.90;96.60
78289;DHT22;67539;48.752;12.922;2024-03-08T11:12:27;9.90;97.10
78289;DHT22;67539;48.752;12.922;2024-03-08T11:14:59;10.00;97.40
78289;DHT22;67539;48.752;12.922;2024-03-08T11:17:44;10.00;96.60
78289;DHT22;67539;48.752;12.922;2024-03-08T11:20:14;10.10;96.90
78289;DHT22;67539;48.752;12.922;2024-03-08T11:22:48;10.10;96.20
78289;DHT22;67539;48.752;12.922;2024-03-08T11:25:34;10.10;95.90
78289;DHT22;67539;48.752;12.922;2024-03-08T11:28:14;10.10;95.80
78289;DHT22;67539;48.752;12.922;2024-03-08T11:30:45;10.10;96.00
78289;DHT22;67539;48.752;12.922;2024-03-08T11:33:16;10.20;96.10
78289;DHT22;67539;48.752;12.922;2024-03-08T11:35:46;10.20;95.10
78289;DHT22;67539;48.752;12.922;2024-03-08T11:38:14;10.20;96.40
78289;DHT22;67539;48.752;12.922;2024-03-08T11:40:46;10.30;96.80
78289;DHT22;67539;48.752;12.922;2024-03-08T11:43:18;10.40;97.40
78289;DHT22;67539;48.752;12.922;2024-03-08T11:45:47;10.50;96.60
78289;DHT22;67539;48.752;12.922;2024-03-08T11:48:15;10.60;96.40
78289;DHT22;67539;48.752;12.922;2024-03-08T11:50:44;10.60;95.90
78289;DHT22;67539;48.752;12.922;2024-03-08T11:53:12;10.70;96.10
78289;DHT22;67539;48.752;12.922;2024-03-08T11:55:40;10.80;95.00
78289;DHT22;67539;48.752;12.922;2024-03-08T11:58:09;10.80;94.80
78289;DHT22;67539;48.752;12.922;2024-03-08T12:00:41;10.80;94.30
78289;DHT22;67539;48.752;12.922;2024-03-08T12:03:09;10.80;95.50
78289;DHT22;67539;48.752;12.922;2024-03-08T12:05:38;10.90;94.00
78289;DHT22;67539;48.752;12.922;2024-03-08T12:08:06;10.90;94.70
78289;DHT22;67539;48.752;12.922;2024-03-08T12:10:40;11.00;93.50
78289;DHT22;67539;48.752;12.922;2024-03-08T12:13:09;11.10;93.60
78289;DHT22;67539;48.752;12.922;2024-03-08T12:15:41;11.20;93.30
78289;DHT22;67539;48.752;12.922;2024-03-08T12:18:11;11.20;92.50
78289;DHT22;67539;48.752;12.922;2024-03-08T12:20:40;11.20;92.10
78289;DHT22;67539;48.752;12.922;2024-03-08T12:23:14;11.30;92.10
78289;DHT22;67539;48.752;12.922;2024-03-08T12:25:42;11.30;92.10
78289;DHT22;67539;48.752;12.922;2024-03-08T12:28:11;11.40;91.40
78289;DHT22;67539;48.752;12.922;2024-03-08T12:30:50;11.40;91.60
78289;DHT22;67539;48.752;12.922;2024-03-08T12:33:20;11.40;91.30
78289;DHT22;67539;48.752;12.922;2024-03-08T12:35:52;11.50;91.80
78289;DHT22;67539;48.752;12.922;2024-03-08T12:38:23;11.60;91.10
78289;DHT22;67539;48.752;12.922;2024-03-08T12:40:55;11.60;89.00
78289;DHT22;67539;48.752;12.922;2024-03-08T12:43:25;11.60;90.50
78289;DHT22;67539;48.752;12.922;2024-03-08T12:45:59;11.70;90.90
78289;DHT22;67539;48.752;12.922;2024-03-08T12:48:27;11.70;90.70
78289;DHT22;67539;48.752;12.922;2024-03-08T12:50:55;11.80;90.00
78289;DHT22;67539;48.752;12.922;2024-03-08T12:53:23;11.80;90.40
78289;DHT22;67539;48.752;12.922;2024-03-08T12:55:56;11.90;90.40
78289;DHT22;67539;48.752;12.922;2024-03-08T12:58:24;11.90;85.50
78289;DHT22;67539;48.752;12.922;2024-03-08T13:00:53;11.80;89.20
78289;DHT22;67539;48.752;12.922;2024-03-08T13:03:23;11.90;90.40
78289;DHT22;67539;48.752;12.922;2024-03-08T13:05:51;12.00;89.90
78289;DHT22;67539;48.752;12.922;2024-03-08T13:08:20;12.00;89.20
78289;DHT22;67539;48.752;12.922;2024-03-08T13:10:51;12.10;90.00
78289;DHT22;67539;48.752;12.922;2024-03-08T13:13:21;12.20;89.00
78289;DHT22;67539;48.752;12.922;2024-03-08T13:15:49;12.30;88.60
78289;DHT22;67539;48.752;12.922;2024-03-08T13:18:17;12.30;87.30
78289;DHT22;67539;48.752;12.922;2024-03-08T13:20:47;12.40;87.10
78289;DHT22;67539;48.752;12.922;2024-03-08T13:23:19;12.40;87.60
78289;DHT22;67539;48.752;12.922;2024-03-08T13:25:47;12.50;88.60
78289;DHT22;67539;48.752;12.922;2024-03-08T13:28:16;12.50;85.60
78289;DHT22;67539;48.752;12.922;2024-03-08T13:30:50;12.50;80.70
78289;DHT22;67539;48.752;12.922;2024-03-08T13:33:24;12.40;81.10
78289;DHT22;67539;48.752;12.922;2024-03-08T13:35:53;12.50;81.80
78289;DHT22;67539;48.752;12.922;2024-03-08T13:38:23;12.50;80.60
78289;DHT22;67539;48.752;12.922;2024-03-08T13:40:51;12.60;79.60
78289;DHT22;67539;48.752;12.922;2024-03-08T13:43:19;12.60;77.10
78289;DHT22;67539;48.752;12.922;2024-03-08T13:45:49;12.70;79.60
78289;DHT22;67539;48.752;12.922;2024-03-08T13:48:17;12.70;80.80
78289;DHT22;67539;48.752;12.922;2024-03-08T13:50:45;13.10;80.80
78289;DHT22;67539;48.752;12.922;2024-03-08T13:53:15;13.70;79.50
78289;DHT22;67539;48.752;12.922;2024-03-08T13:55:43;14.30;76.30
78289;DHT22;67539;48.752;12.922;2024-03-08T13:58:11;14.70;71.10
78289;DHT22;67539;48.752;12.922;2024-03-08T14:00:40;15.20;74.40
78289;DHT22;67539;48.752;12.922;2024-03-08T14:03:10;15.70;72.80
78289;DHT22;67539;48.752;12.922;2024-03-08T14:05:40;16.00;67.70
78289;DHT22;67539;48.752;12.922;2024-03-08T14:08:09;16.40;68.50
78289;DHT22;67539;48.752;12.922;2024-03-08T14:10:40;16.90;68.60
78289;DHT22;67539;48.752;12.922;2024-03-08T14:13:09;16.90;65.60
78289;DHT22;67539;48.752;12.922;2024-03-08T14:15:38;16.80;58.90
78289;DHT22;67539;48.752;12.922;2024-03-08T14:18:09;16.70;62.00
78289;DHT22;67539;48.752;12.922;2024-03-08T14:20:40;16.60;64.10
78289;DHT22;67539;48.752;12.922;2024-03-08T14:23:09;16.80;60.50
78289;DHT22;67539;48.752;12.922;2024-03-08T14:25:37;17.00;61.00
78289;DHT22;67539;48.752;12.922;2024-03-08T14:28:07;17.20;59.10
78289;DHT22;67539;48.752;12.922;2024-03-08T14:30:35;17.10;59.20
78289;DHT22;67539;48.752;12.922;2024-03-08T14:33:05;17.10;58.70
78289;DHT22;67539;48.752;12.922;2024-03-08T14:35:35;17.40;60.20
78289;DHT22;67539;48.752;12.922;2024-03-08T14:38:04;17.70;60.30
78289;DHT22;67539;48.752;12.922;2024-03-08T14:40:35;17.50;55.40
78289;DHT22;67539;48.752;12.922;2024-03-08T14:43:05;17.30;56.30
78289;DHT22;67539;48.752;12.922;2024-03-08T14:45:34;17.30;57.90
78289;DHT22;67539;48.752;12.922;2024-03-08T14:48:04;17.50;55.70
78289;DHT22;67539;48.752;12.922;2024-03-08T14:50:33;17.00;54.10
78289;DHT22;67539;48.752;12.922;2024-03-08T14:53:04;17.00;57.00
78289;DHT22;67539;48.752;12.922;2024-03-08T14:55:34;16.90;57.30
78289;DHT22;67539;48.752;12.922;2024-03-08T14:58:02;17.30;57.60
78289;DHT22;67539;48.752;12.922;2024-03-08T15:00:31;17.00;55.70
78289;DHT22;67539;48.752;12.922;2024-03-08T15:03:04;17.20;57.10
78289;DHT22;67539;48.752;12.922;2024-03-08T15:05:33;17.50;56.70
78289;DHT22;67539;48.752;12.922;2024-03-08T15:08:06;17.40;55.70
78289;DHT22;67539;48.752;12.922;2024-03-08T15:10:39;17.40;53.90
78289;DHT22;67539;48.752;12.922;2024-03-08T15:13:09;17.30;55.80
78289;DHT22;67539;48.752;12.922;2024-03-08T15:15:49;17.40;55.60
78289;DHT22;67539;48.752;12.922;2024-03-08T15:18:24;17.50;56.80
78289;DHT22;67539;48.752;12.922;2024-03-08T15:20:58;17.60;56.30
78289;DHT22;67539;48.752;12.922;2024-03-08T15:23:26;17.60;55.30
78289;DHT22;67539;48.752;12.922;2024-03-08T15:25:55;17.50;54.60
78289;DHT22;67539;48.752;12.922;2024-03-08T15:28:24;17.10;54.50
78289;DHT22;67539;48.752;12.922;2024-03-08T15:31:01;17.00;54.10
78289;DHT22;67539;48.752;12.922;2024-03-08T15:33:35;17.00;54.30
78289;DHT22;67539;48.752;12.922;2024-03-08T15:36:09;17.10;54.70
78289;DHT22;67539;48.752;12.922;2024-03-08T15:38:38;16.90;53.30
78289;DHT22;67539;48.752;12.922;2024-03-08T15:41:06;16.60;54.00
78289;DHT22;67539;48.752;12.922;2024-03-08T15:43:37;16.50;54.70
78289;DHT22;67539;48.752;12.922;2024-03-08T15:46:06;16.40;54.50
78289;DHT22;67539;48.752;12.922;2024-03-08T15:48:37;16.30;54.40
78289;DHT22;67539;48.752;12.922;2024-03-08T15:51:06;16.10;54.70
78289;DHT22;67539;48.752;12.922;2024-03-08T15:53:37;16.10;54.90
78289;DHT22;67539;48.752;12.922;2024-03-08T15:56:06;15.90;53.70